Highland, Michigan
Current Conditions -  °F | °C
As of 11:53 PM on Wednesday 22 Oct 2014 (Local Time) from KPTK Reporting Station
Clear Clear  
Wind Chill: 38°   Ceiling: Unl
Heat Index: 38°   Visibility: 10mi
Dew Point: 35°   Wind: 3mph
Humidity: 89%   Direction: 360°N
Pressure: 30.27"   Gusts: NA
Location:  42.63°N, 83.61°W
Report Text: KPTK 230353Z 36003KT 10SM CLR 03/02 A3027 RMK AO2 SLP258 LAST AUGMENTED OBS NEXT 10Z T00330017
Loading
Personal Weather Stations






























Interactive Weather Map
Tropical Storm Tracking
New forecast layout! Learn more

10-Day Weather Forecast

Advertisements
Track Severe Weather on mobile